Time;durP1;ratioP1;P1;durP2;ratioP2;P2;SDS_P1;SDS_P2;PMS_P1;PMS_P2;Temp;Humidity;BMP_temperature;BMP_pressure;BME280_temperature;BME280_humidity;BME280_pressure;Samples;Min_cycle;Max_cycle;Signal;HPM_P1;HPM_P2
2023/07/19 00:00:13;;;;;;;5.10;4.65;;;;;;;28.19;55.72;101161.44;5021751;28;21987;-86
2023/07/19 00:02:39;;;;;;;5.57;4.90;;;;;;;28.39;55.68;101187.16;5033666;28;20116;-87
2023/07/19 00:05:32;;;;;;;5.05;4.65;;;;;;;28.41;55.89;101191.59;5020306;28;20033;-87
2023/07/19 00:07:58;;;;;;;5.85;4.70;;;;;;;28.29;55.50;101172.06;5033813;28;20021;-87
2023/07/19 00:10:24;;;;;;;4.93;4.47;;;;;;;28.14;55.63;101143.59;5027772;28;20037;-87
2023/07/19 00:12:50;;;;;;;5.40;4.90;;;;;;;28.11;55.63;101146.31;5013528;28;20032;-87
2023/07/19 00:15:16;;;;;;;5.25;4.65;;;;;;;28.28;55.73;101167.56;4998109;28;20030;-86
2023/07/19 00:17:44;;;;;;;5.50;5.00;;;;;;;28.37;55.79;101183.59;5026028;28;20021;-86
2023/07/19 00:20:14;;;;;;;5.57;4.70;;;;;;;28.28;55.60;101165.81;5031077;28;20124;-86
2023/07/19 00:22:40;;;;;;;5.60;4.95;;;;;;;28.22;55.28;101152.44;5012427;28;20103;-86
2023/07/19 00:25:06;;;;;;;5.30;4.80;;;;;;;28.22;55.55;101153.34;5018147;28;20475;-86
2023/07/19 00:27:34;;;;;;;5.40;4.90;;;;;;;28.29;55.13;101180.13;5030568;28;20029;-87
2023/07/19 00:30:00;;;;;;;5.55;4.90;;;;;;;28.14;55.68;101152.53;5026978;28;20085;-86
2023/07/19 00:32:26;;;;;;;5.25;4.75;;;;;;;28.32;55.26;101178.28;5028959;28;20014;-87
2023/07/19 00:35:29;;;;;;;6.15;4.47;;;;;;;28.31;55.21;101171.13;5020222;28;20057;-89
2023/07/19 00:37:57;;;;;;;5.20;4.70;;;;;;;27.84;54.82;101093.84;5039799;28;20037;-86
2023/07/19 00:40:32;;;;;;;5.47;4.65;;;;;;;28.16;55.09;101144.47;5016420;28;20029;-86
2023/07/19 00:43:09;;;;;;;4.90;4.50;;;;;;;28.30;55.02;101169.38;5057650;28;20059;-86
2023/07/19 00:45:44;;;;;;;4.93;4.53;;;;;;;28.27;55.17;101164.00;5041820;28;20454;-87
2023/07/19 00:48:26;;;;;;;5.67;4.77;;;;;;;28.06;55.26;101124.00;5051646;28;20060;-87
2023/07/19 00:50:55;;;;;;;5.65;5.05;;;;;;;28.29;55.04;101158.63;5022471;28;20287;-87
2023/07/19 00:53:39;;;;;;;6.03;4.43;;;;;;;28.30;55.06;101157.69;5040881;28;20021;-88
2023/07/19 00:59:27;;;;;;;4.68;4.28;;;;;;;28.15;54.92;101123.88;5048851;28;20410;-88
2023/07/19 01:01:53;;;;;;;4.80;4.30;;;;;;;28.16;54.66;101128.34;5053244;28;20046;-88
2023/07/19 01:04:20;;;;;;;4.68;3.83;;;;;;;28.21;54.72;101137.22;5018332;28;20021;-87
2023/07/19 01:06:46;;;;;;;4.70;4.30;;;;;;;27.99;55.12;101083.81;5051536;28;20040;-87
2023/07/19 01:09:13;;;;;;;5.07;4.45;;;;;;;27.85;54.54;101064.28;5021888;28;20021;-86
2023/07/19 01:11:39;;;;;;;5.47;4.43;;;;;;;28.26;54.95;101129.09;5020087;28;20052;-86
2023/07/19 01:14:05;;;;;;;4.80;4.30;;;;;;;28.04;54.76;101090.91;5034561;28;20025;-87
2023/07/19 01:16:31;;;;;;;5.68;4.25;;;;;;;28.25;54.55;101151.53;5051549;28;20040;-87
2023/07/19 01:18:56;;;;;;;5.65;4.50;;;;;;;28.02;54.87;101102.59;5049325;28;20551;-87
2023/07/19 01:21:22;;;;;;;5.07;4.57;;;;;;;28.17;55.05;101130.13;5047768;28;20033;-86
2023/07/19 01:23:48;;;;;;;6.43;4.35;;;;;;;28.13;54.83;101128.38;5024385;28;20029;-87
2023/07/19 01:26:14;;;;;;;4.90;4.40;;;;;;;28.24;54.91;101139.91;5033719;28;20100;-87
2023/07/19 01:28:40;;;;;;;4.97;4.47;;;;;;;28.10;54.49;101118.56;5033366;28;20095;-87
2023/07/19 01:31:06;;;;;;;4.80;4.30;;;;;;;28.16;54.53;101139.09;5017312;28;20025;-86
2023/07/19 01:33:32;;;;;;;5.80;4.20;;;;;;;28.22;54.47;101147.09;5002209;28;20056;-88
2023/07/19 01:35:58;;;;;;;4.88;4.40;;;;;;;28.13;54.64;101139.13;5028799;28;20030;-87
2023/07/19 01:38:24;;;;;;;4.75;4.22;;;;;;;28.14;54.46;101146.28;5017288;28;20034;-87
2023/07/19 01:40:49;;;;;;;5.00;4.50;;;;;;;28.10;54.86;101142.75;5029411;28;20037;-86
2023/07/19 01:43:15;;;;;;;4.65;4.25;;;;;;;28.08;54.78;101149.03;5019628;28;20026;-86
2023/07/19 01:45:41;;;;;;;6.28;4.22;;;;;;;28.18;54.84;101165.03;5032435;28;20022;-89
2023/07/19 01:48:06;;;;;;;6.38;4.63;;;;;;;27.99;54.59;101126.78;5022845;28;20022;-84
2023/07/19 01:50:32;;;;;;;6.28;4.38;;;;;;;28.18;54.76;101162.34;5031842;28;20155;-86
2023/07/19 01:52:58;;;;;;;4.50;4.10;;;;;;;28.09;54.67;101137.38;5031413;28;20083;-86
2023/07/19 01:55:23;;;;;;;5.38;4.25;;;;;;;28.06;54.70;101137.44;5032671;28;20021;-87
2023/07/19 01:57:49;;;;;;;4.53;4.13;;;;;;;28.06;54.77;101138.31;5012342;28;20556;-85
2023/07/19 02:00:15;;;;;;;4.32;3.90;;;;;;;28.15;54.34;101148.03;5012429;28;20040;-86
2023/07/19 02:02:41;;;;;;;5.35;4.40;;;;;;;27.92;54.66;101100.91;5025013;28;20034;-86
2023/07/19 02:05:10;;;;;;;4.55;4.15;;;;;;;28.15;54.57;101146.28;5031521;28;20128;-88
2023/07/19 02:07:35;;;;;;;5.30;4.22;;;;;;;28.04;54.66;101133.88;5018269;28;20025;-87
2023/07/19 02:10:02;;;;;;;4.60;4.20;;;;;;;27.99;54.70;101147.38;5031600;28;20025;-87
2023/07/19 02:12:28;;;;;;;4.82;4.03;;;;;;;27.96;54.86;101145.63;5023918;28;20487;-85
2023/07/19 02:14:54;;;;;;;4.80;4.20;;;;;;;28.04;54.97;101152.69;5015407;28;20055;-86
2023/07/19 02:17:21;;;;;;;4.70;4.15;;;;;;;28.12;54.57;101166.91;5026282;28;20025;-87
2023/07/19 02:19:46;;;;;;;4.57;4.18;;;;;;;28.05;54.96;101165.22;5030994;28;20044;-87
2023/07/19 02:22:12;;;;;;;5.00;4.60;;;;;;;28.05;54.75;101168.78;5021851;28;20030;-88
2023/07/19 02:24:38;;;;;;;5.05;4.10;;;;;;;27.82;54.58;101129.63;5023387;28;20022;-86
2023/07/19 02:27:03;;;;;;;5.10;4.45;;;;;;;27.72;54.29;101119.00;5017009;28;20022;-87
2023/07/19 02:29:29;;;;;;;4.95;4.38;;;;;;;27.84;54.52;101136.78;5010175;28;20217;-87
2023/07/19 02:31:55;;;;;;;5.20;4.35;;;;;;;27.61;54.93;101103.91;5025218;28;20061;-87
2023/07/19 02:34:20;;;;;;;4.78;4.38;;;;;;;28.03;54.51;101170.59;5001304;28;20061;-87
2023/07/19 02:36:49;;;;;;;5.20;4.53;;;;;;;28.08;54.70;101167.84;5030528;28;20033;-87
2023/07/19 02:39:15;;;;;;;4.63;4.22;;;;;;;28.07;54.81;101168.72;5028248;28;20033;-87
2023/07/19 02:41:41;;;;;;;4.72;4.20;;;;;;;27.87;54.53;101152.88;5029529;28;20025;-87
2023/07/19 02:44:07;;;;;;;6.40;4.13;;;;;;;27.83;54.26;101138.56;5009635;28;20030;-86
2023/07/19 02:46:32;;;;;;;4.75;4.20;;;;;;;28.07;54.22;101168.72;5026112;28;20109;-86
2023/07/19 02:52:00;;;;;;;4.32;3.92;;;;;;;27.90;54.50;101147.47;5030721;28;20020;-88
2023/07/19 02:54:41;;;;;;;5.70;4.47;;;;;;;28.02;54.30;101168.78;5025523;28;20049;-89
2023/07/19 02:57:19;;;;;;;4.20;3.80;;;;;;;27.65;54.55;101115.50;5029400;28;20084;-89
2023/07/19 02:59:46;;;;;;;7.03;4.40;;;;;;;27.91;54.32;101157.31;5021686;28;20026;-88
2023/07/19 03:02:13;;;;;;;4.57;3.90;;;;;;;27.68;54.11;101119.94;5007748;28;20410;-88
2023/07/19 03:04:39;;;;;;;4.55;4.10;;;;;;;27.77;54.19;101127.88;5011601;28;20022;-87
2023/07/19 03:07:05;;;;;;;4.72;4.32;;;;;;;27.68;54.46;101109.22;5002927;28;20079;-87
2023/07/19 03:09:31;;;;;;;4.55;4.10;;;;;;;27.52;54.73;101085.25;5020978;28;20072;-86
2023/07/19 03:11:56;;;;;;;4.55;4.15;;;;;;;27.72;54.41;101119.00;5022906;28;20447;-86
2023/07/19 03:14:22;;;;;;;4.72;4.20;;;;;;;27.90;54.43;101148.38;5025974;28;20049;-85
2023/07/19 03:16:47;;;;;;;4.95;4.15;;;;;;;27.96;54.21;101159.03;5003532;28;20064;-84
2023/07/19 03:19:14;;;;;;;6.35;4.38;;;;;;;27.89;53.93;101146.56;5026182;28;20782;-87
2023/07/19 03:21:40;;;;;;;4.70;4.28;;;;;;;27.93;54.01;101158.19;5022623;28;20406;-88
2023/07/19 03:24:06;;;;;;;4.88;4.47;;;;;;;27.89;54.06;101149.25;5018497;28;20022;-88
2023/07/19 03:26:31;;;;;;;4.40;3.90;;;;;;;27.95;54.62;101167.09;5020479;28;20406;-88
2023/07/19 03:28:57;;;;;;;4.85;4.20;;;;;;;27.70;53.96;101119.03;5024505;28;20036;-87
2023/07/19 03:32:15;;;;;;;5.00;4.10;;;;;;;27.94;54.07;101154.56;5005983;28;20042;-87
2023/07/19 03:34:41;;;;;;;;;;;;;;;27.97;53.94;101158.13;5023186;28;20085;-89
2023/07/19 03:37:38;;;;;;;4.72;4.30;;;;;;;27.94;54.18;101154.56;5030946;28;19931;-91
2023/07/19 03:40:04;;;;;;;5.40;4.22;;;;;;;27.92;54.31;101149.25;5023711;28;20113;-87
2023/07/19 03:42:30;;;;;;;5.18;3.85;;;;;;;27.63;54.40;101100.34;5032665;28;20038;-88
2023/07/19 03:44:59;;;;;;;4.93;4.47;;;;;;;27.90;53.96;101143.00;5022427;28;20025;-89
2023/07/19 03:47:25;;;;;;;5.20;4.45;;;;;;;27.69;nan;101114.56;5007995;28;20121;-88
2023/07/19 03:50:36;;;;;;;4.70;4.30;;;;;;;27.74;54.37;101123.44;5028462;28;20117;-89
2023/07/19 03:53:04;;;;;;;4.50;4.07;;;;;;;27.47;54.31;101089.75;5027919;28;20037;-89
2023/07/19 03:55:31;;;;;;;5.25;4.75;;;;;;;27.89;54.26;101148.38;5018145;28;20088;-88
2023/07/19 03:57:57;;;;;;;4.72;4.22;;;;;;;27.71;54.06;101128.88;5024830;28;20512;-88
2023/07/19 04:00:24;;;;;;;4.53;4.13;;;;;;;27.49;54.18;101090.63;5007483;28;20025;-89
2023/07/19 04:02:50;;;;;;;5.53;4.05;;;;;;;27.56;54.23;101116.50;5016953;28;20037;-89
2023/07/19 04:05:16;;;;;;;4.70;4.20;;;;;;;27.82;53.81;101148.41;5017372;28;20034;-87
2023/07/19 04:07:44;;;;;;;6.05;4.55;;;;;;;27.74;53.73;101139.56;5014461;28;20077;-87
2023/07/19 04:10:10;;;;;;;4.72;4.30;;;;;;;27.75;53.62;101152.09;5035849;28;20120;-87
2023/07/19 04:12:36;;;;;;;;;;;;;;;27.86;54.03;101157.34;5032380;28;20083;-86
2023/07/19 04:15:01;;;;;;;4.95;4.20;;;;;;;27.76;53.79;101147.59;5021205;28;19959;-87
2023/07/19 04:17:27;;;;;;;6.38;4.20;;;;;;;27.79;53.53;101158.28;5035536;28;20053;-86
2023/07/19 04:19:53;;;;;;;4.65;4.15;;;;;;;27.82;53.68;101166.31;5016391;28;20045;-86
2023/07/19 04:22:24;;;;;;;4.65;4.25;;;;;;;27.68;53.83;101144.09;5006476;28;20111;-87
2023/07/19 04:24:49;;;;;;;5.65;4.63;;;;;;;27.80;54.02;101158.28;5016174;28;20044;-87
2023/07/19 04:27:15;;;;;;;4.88;4.38;;;;;;;27.79;53.97;101156.50;5035052;28;20022;-87
2023/07/19 04:29:46;;;;;;;5.10;4.60;;;;;;;27.71;53.72;101153.03;5028924;28;20056;-87
2023/07/19 04:32:15;;;;;;;4.60;4.20;;;;;;;27.81;53.70;101164.53;5027926;28;20034;-87
2023/07/19 04:34:41;;;;;;;5.28;4.78;;;;;;;27.81;53.92;101165.44;5024789;28;20049;-88
2023/07/19 04:37:07;;;;;;;5.38;4.70;;;;;;;27.80;53.88;101160.06;5029598;28;20022;-87
2023/07/19 04:39:32;;;;;;;;;;;;;;;27.84;53.96;101150.22;5029941;28;20029;-88
2023/07/19 04:41:58;;;;;;;4.78;4.28;;;;;;;27.21;54.04;101052.47;5012504;28;20358;-86
2023/07/19 04:44:24;;;;;;;5.00;4.60;;;;;;;27.37;53.91;101080.06;5031685;28;20034;-87
2023/07/19 04:46:50;;;;;;;6.55;4.55;;;;;;;27.52;53.89;101119.25;5026077;28;20509;-86
2023/07/19 04:49:16;;;;;;;4.38;3.92;;;;;;;27.61;54.07;101140.59;5022490;28;20029;-86
2023/07/19 04:51:42;;;;;;;5.90;4.80;;;;;;;27.39;54.09;101100.59;5013524;28;20596;-88
2023/07/19 04:54:07;;;;;;;6.22;4.63;;;;;;;27.65;54.41;101136.97;5025872;28;20029;-87
2023/07/19 04:56:33;;;;;;;5.18;4.55;;;;;;;27.75;54.46;101151.16;5029893;28;20030;-87
2023/07/19 04:58:58;;;;;;;5.07;4.53;;;;;;;27.56;54.62;101123.69;5021913;28;20037;-88
2023/07/19 05:01:24;;;;;;;;;;;;;;;27.75;54.39;101160.13;5028910;28;20029;-88
2023/07/19 05:03:50;;;;;;;5.05;4.43;;;;;;;27.70;54.50;101169.13;5021570;28;20405;-87
2023/07/19 05:06:15;;;;;;;4.95;4.53;;;;;;;27.24;54.77;101092.66;5025143;28;20029;-87
2023/07/19 05:08:41;;;;;;;;;;;;;;;27.70;54.83;101164.63;5027843;28;20025;-87
2023/07/19 05:11:07;;;;;;;7.32;4.55;;;;;;;27.63;55.48;101167.44;5021021;28;19917;-87
2023/07/19 05:13:32;;;;;;;4.90;4.40;;;;;;;27.59;55.70;101170.13;5022832;28;20072;-88
2023/07/19 05:16:00;;;;;;;4.63;4.20;;;;;;;27.62;55.64;101166.50;5015403;28;20034;-87
2023/07/19 05:18:26;;;;;;;5.18;4.63;;;;;;;27.39;55.88;101127.41;5015156;28;20147;-88
2023/07/19 05:20:53;;;;;;;6.10;4.78;;;;;;;27.52;55.76;101151.44;5020393;28;20042;-89
2023/07/19 05:23:19;;;;;;;5.43;4.60;;;;;;;27.38;55.64;101124.72;5030225;28;20494;-86
2023/07/19 05:25:46;;;;;;;4.50;4.10;;;;;;;27.45;55.40;101137.16;5028841;28;20069;-89
2023/07/19 05:28:12;;;;;;;5.72;4.35;;;;;;;27.33;55.81;101119.44;5027798;28;20032;-87
2023/07/19 05:30:37;;;;;;;;;;;;;;;27.68;55.83;101176.31;5013650;28;20030;-86
2023/07/19 05:33:03;;;;;;;4.93;4.22;;;;;;;27.55;55.68;101163.00;5033758;28;19927;-89
2023/07/19 05:35:31;;;;;;;4.70;4.28;;;;;;;27.66;56.03;101172.75;5049777;28;20025;-87
2023/07/19 05:37:56;;;;;;;4.72;4.32;;;;;;;27.50;56.11;101147.88;5031268;28;20037;-87
2023/07/19 05:40:22;;;;;;;4.93;4.45;;;;;;;27.58;55.85;101157.63;5055707;28;20090;-89
2023/07/19 05:42:48;;;;;;;5.20;4.70;;;;;;;27.70;55.97;101172.69;5015197;28;20034;-88
2023/07/19 05:45:13;;;;;;;4.85;4.35;;;;;;;27.44;56.20;101121.13;5051142;28;20029;-89
2023/07/19 05:47:39;;;;;;;4.38;4.03;;;;;;;27.67;55.71;101162.00;5033676;28;20029;-88
2023/07/19 05:50:06;;;;;;;5.32;4.55;;;;;;;27.68;55.73;101153.03;5015220;28;20035;-87
2023/07/19 05:52:32;;;;;;;4.38;3.97;;;;;;;27.44;55.78;101105.03;5033198;28;20115;-88
2023/07/19 05:54:58;;;;;;;5.28;4.18;;;;;;;27.38;55.67;101095.22;5049936;28;20092;-90
2023/07/19 05:57:25;;;;;;;4.93;4.40;;;;;;;27.69;56.11;101143.22;5019178;28;20772;-89
2023/07/19 05:59:50;;;;;;;4.70;4.30;;;;;;;27.57;55.91;101125.44;5036286;28;20031;-89
2023/07/19 06:02:16;;;;;;;5.45;4.38;;;;;;;27.62;56.06;101123.59;5023983;28;20040;-90
2023/07/19 06:04:42;;;;;;;4.35;3.95;;;;;;;27.27;55.87;101064.97;5014276;28;20025;-88
2023/07/19 06:07:09;;;;;;;5.32;4.82;;;;;;;27.71;55.42;101139.59;5056461;28;20048;-90
2023/07/19 06:09:34;;;;;;;4.70;4.30;;;;;;;27.41;55.68;101081.78;5036923;28;20039;-87
2023/07/19 06:12:00;;;;;;;5.38;4.35;;;;;;;27.40;55.84;101091.63;5043170;28;20021;-84
2023/07/19 06:14:26;;;;;;;5.03;4.53;;;;;;;27.60;54.88;101118.25;5048372;28;20036;-90
2023/07/19 06:16:53;;;;;;;4.90;4.47;;;;;;;27.76;55.14;101144.91;5012707;28;20459;-88
2023/07/19 06:19:19;;;;;;;5.15;4.65;;;;;;;27.41;55.82;101088.06;5047431;28;20789;-88
2023/07/19 06:21:45;;;;;;;4.70;4.20;;;;;;;27.76;54.96;101147.59;5053238;28;20036;-89
2023/07/19 06:24:11;;;;;;;4.70;4.30;;;;;;;27.72;55.01;101130.63;5008123;28;20597;-88
2023/07/19 06:26:37;;;;;;;4.57;4.18;;;;;;;27.55;55.16;101105.78;5030558;28;20112;-87
2023/07/19 06:29:03;;;;;;;5.20;4.70;;;;;;;27.58;55.15;101108.41;5006152;28;20111;-88
2023/07/19 06:31:28;;;;;;;;;;;;;;;27.75;55.37;101121.66;5030421;28;20469;-87
2023/07/19 06:33:54;;;;;;;4.68;4.20;;;;;;;27.67;55.38;101107.47;5032471;28;19921;-86
2023/07/19 06:36:19;;;;;;;5.63;4.70;;;;;;;27.61;56.14;101105.72;5021617;28;20048;-87
2023/07/19 06:38:45;;;;;;;4.60;4.20;;;;;;;27.67;55.52;101107.47;5045882;28;20497;-89
2023/07/19 06:41:11;;;;;;;4.50;4.10;;;;;;;27.60;54.87;101098.56;5011597;28;20041;-86
2023/07/19 06:43:37;;;;;;;4.60;4.20;;;;;;;27.42;54.87;101063.00;5025889;28;20024;-85
2023/07/19 06:46:02;;;;;;;4.70;4.30;;;;;;;27.67;55.20;101111.03;5049174;28;20060;-86
2023/07/19 06:48:28;;;;;;;5.68;4.20;;;;;;;27.81;55.43;101111.75;5027482;28;20028;-86
2023/07/19 06:50:56;;;;;;;4.72;4.32;;;;;;;27.83;54.79;101114.41;5049871;28;20033;-86
2023/07/19 06:53:22;;;;;;;4.55;4.15;;;;;;;27.51;55.14;101061.13;5047135;28;20497;-87
2023/07/19 06:55:48;;;;;;;5.40;4.45;;;;;;;27.57;54.85;101071.78;5028725;28;20029;-89
2023/07/19 06:58:13;;;;;;;5.63;5.03;;;;;;;27.45;54.76;101056.69;5032605;28;20560;-87
2023/07/19 07:00:39;;;;;;;4.43;4.03;;;;;;;27.70;54.64;101102.91;5033019;28;20036;-86
2023/07/19 07:03:05;;;;;;;5.43;4.65;;;;;;;27.76;54.43;101112.72;5033509;28;20025;-88
2023/07/19 07:05:30;;;;;;;5.20;4.70;;;;;;;27.48;54.39;101067.41;5035508;28;20388;-87
2023/07/19 07:07:56;;;;;;;;;;;;;;;27.84;54.30;101123.38;5051048;28;20021;-86
2023/07/19 07:10:21;;;;;;;5.70;4.80;;;;;;;27.42;54.60;101046.03;5046737;28;19916;-86
2023/07/19 07:12:47;;;;;;;5.85;5.25;;;;;;;27.76;54.41;101110.91;5015712;28;20036;-85
2023/07/19 07:15:13;;;;;;;4.85;4.43;;;;;;;27.69;54.32;101081.50;5045727;28;20033;-87
2023/07/19 07:17:40;;;;;;;4.75;4.35;;;;;;;27.74;54.42;101091.25;5028555;28;20155;-86
2023/07/19 07:20:07;;;;;;;4.72;4.32;;;;;;;27.68;54.44;101091.31;5048529;28;20033;-89
2023/07/19 07:22:33;;;;;;;4.78;4.38;;;;;;;27.74;54.43;101099.31;5050674;28;20108;-89
2023/07/19 07:24:59;;;;;;;4.82;4.38;;;;;;;27.74;54.48;101096.63;5032479;28;20025;-89
2023/07/19 07:27:27;;;;;;;5.03;4.53;;;;;;;27.65;54.34;101077.94;5032482;28;20025;-88
2023/07/19 07:29:52;;;;;;;5.47;4.63;;;;;;;27.80;54.12;101101.03;5020071;28;20053;-86
2023/07/19 07:32:18;;;;;;;5.28;4.78;;;;;;;27.59;54.40;101064.59;5052772;28;20072;-86
2023/07/19 07:34:43;;;;;;;5.30;4.80;;;;;;;27.65;54.46;101074.38;5010559;28;20053;-86
2023/07/19 07:37:09;;;;;;;;;;;;;;;27.85;54.47;101103.66;5054596;28;20020;-88
2023/07/19 07:39:35;;;;;;;5.20;4.68;;;;;;;27.60;54.20;101069.06;5052649;28;19939;-86
2023/07/19 07:42:01;;;;;;;4.82;4.20;;;;;;;27.81;54.17;101105.47;5054366;28;20029;-86
2023/07/19 07:44:27;;;;;;;5.07;4.57;;;;;;;27.86;54.20;101103.69;5048141;28;20489;-88
2023/07/19 07:46:52;;;;;;;5.43;4.93;;;;;;;27.69;53.95;101071.66;5028047;28;20480;-88
2023/07/19 07:49:18;;;;;;;5.88;4.60;;;;;;;27.82;54.25;101094.72;5039191;28;20064;-90
2023/07/19 07:51:43;;;;;;;5.18;4.68;;;;;;;27.86;54.30;101100.13;5029106;28;20056;-88
2023/07/19 07:54:09;;;;;;;5.15;4.70;;;;;;;27.86;54.25;101089.38;5024443;28;20036;-88
2023/07/19 07:56:35;;;;;;;5.00;4.53;;;;;;;27.78;54.42;101082.25;5064856;28;20551;-88
2023/07/19 07:59:02;;;;;;;5.32;4.82;;;;;;;27.85;54.41;101087.56;5037891;28;20544;-86
2023/07/19 08:01:28;;;;;;;5.35;4.85;;;;;;;27.80;53.97;101084.94;5054608;28;20040;-87
2023/07/19 08:03:53;;;;;;;5.53;4.78;;;;;;;27.78;53.98;101086.75;5056353;28;20434;-87
2023/07/19 08:06:19;;;;;;;5.40;4.90;;;;;;;27.67;54.25;101065.41;5056194;28;20021;-88
2023/07/19 08:08:45;;;;;;;6.00;5.40;;;;;;;27.75;53.89;101081.41;5034128;28;20083;-87
2023/07/19 08:11:10;;;;;;;5.05;4.65;;;;;;;27.77;53.92;101090.31;5035699;28;20025;-88
2023/07/19 08:13:36;;;;;;;6.00;4.75;;;;;;;27.50;54.03;101037.91;5035915;28;20021;-87
2023/07/19 08:16:06;;;;;;;5.65;4.95;;;;;;;27.56;53.82;101052.13;5047525;28;20103;-85
2023/07/19 08:18:35;;;;;;;5.50;5.00;;;;;;;27.78;54.07;101089.44;5062087;28;20025;-87
2023/07/19 08:21:02;;;;;;;5.03;4.55;;;;;;;27.89;54.23;101106.31;5035617;28;20059;-87
2023/07/19 08:23:27;;;;;;;7.30;4.78;;;;;;;27.74;53.75;101083.19;5041790;28;20021;-87
2023/07/19 08:25:57;;;;;;;5.38;4.68;;;;;;;27.82;53.78;101099.22;5039843;28;20039;-85
2023/07/19 08:28:26;;;;;;;5.00;4.50;;;;;;;27.59;53.78;101054.75;5037198;28;20053;-87
2023/07/19 08:30:53;;;;;;;4.65;4.25;;;;;;;27.74;54.15;101093.94;5039955;28;20024;-86
2023/07/19 08:33:23;;;;;;;5.30;4.72;;;;;;;27.80;53.83;101103.72;5042105;28;20037;-87
2023/07/19 08:35:52;;;;;;;5.32;4.47;;;;;;;27.86;54.01;101101.00;5031603;28;20044;-88
2023/07/19 08:38:18;;;;;;;5.03;4.32;;;;;;;27.91;53.71;101117.91;5033394;28;20030;-90
2023/07/19 08:41:06;;;;;;;4.65;4.25;;;;;;;27.77;53.96;101095.69;5053668;28;20116;-90
2023/07/19 08:43:37;;;;;;;5.25;4.72;;;;;;;27.84;53.57;101105.47;5005588;28;20119;-92
2023/07/19 08:46:03;;;;;;;5.10;4.65;;;;;;;27.76;53.70;101089.44;5023321;28;20028;-88
2023/07/19 08:48:34;;;;;;;5.22;4.65;;;;;;;27.69;53.86;101082.38;5035052;28;20057;-95
2023/07/19 08:51:22;;;;;;;5.43;4.93;;;;;;;27.96;53.67;101123.22;5024839;28;20017;-93
2023/07/19 08:54:11;;;;;;;5.05;4.65;;;;;;;27.96;53.70;101125.91;5017150;28;20448;-92
2023/07/19 08:56:38;;;;;;;5.45;4.82;;;;;;;27.36;53.58;101019.25;5024804;28;20497;-91
2023/07/19 08:59:26;;;;;;;5.63;5.07;;;;;;;27.96;53.78;101124.13;5023460;28;20021;-93
2023/07/19 09:02:23;;;;;;;4.97;4.47;;;;;;;27.97;53.76;101125.03;5017090;28;20028;-88
2023/07/19 09:05:09;;;;;;;5.20;4.70;;;;;;;27.70;53.84;101075.22;5049029;28;20033;-89
2023/07/19 09:07:52;;;;;;;6.35;5.22;;;;;;;27.77;53.62;101084.94;5031134;28;20056;-89
2023/07/19 09:10:44;;;;;;;5.55;5.05;;;;;;;27.97;53.85;101120.53;5015564;28;20099;-89
2023/07/19 09:13:09;;;;;;;5.40;4.90;;;;;;;27.71;53.41;101072.50;5017097;28;20107;-88
2023/07/19 09:15:36;;;;;;;5.65;5.05;;;;;;;27.81;53.90;101087.59;5031044;28;20052;-85
2023/07/19 09:18:06;;;;;;;5.18;4.68;;;;;;;27.79;53.81;101080.44;5033656;28;20027;-83
2023/07/19 09:20:37;;;;;;;4.80;4.40;;;;;;;27.70;53.78;101062.66;5033074;28;20114;-85
2023/07/19 09:23:07;;;;;;;5.10;4.60;;;;;;;28.00;53.65;101104.41;5034837;28;20037;-85
2023/07/19 09:25:55;;;;;;;5.22;4.72;;;;;;;28.02;53.72;101091.84;5052161;28;20048;-86
2023/07/19 09:28:24;;;;;;;5.25;4.75;;;;;;;28.06;53.70;101089.09;5035389;28;20048;-86
2023/07/19 09:31:08;;;;;;;4.90;4.40;;;;;;;27.92;53.90;101075.84;5046055;28;20045;-86
2023/07/19 09:33:34;;;;;;;5.47;5.00;;;;;;;27.83;53.42;101055.34;5020132;28;20048;-85
2023/07/19 09:36:37;;;;;;;5.18;4.70;;;;;;;28.04;53.72;101094.50;5016554;28;20033;-85
2023/07/19 09:39:02;;;;;;;5.30;4.75;;;;;;;27.74;53.54;101036.69;5022185;28;20034;-85
2023/07/19 09:41:28;;;;;;;4.97;4.57;;;;;;;27.94;53.66;101074.94;5020212;28;20044;-85
2023/07/19 09:43:54;;;;;;;5.13;4.63;;;;;;;27.86;53.82;101066.09;5023600;28;20059;-85
2023/07/19 09:46:21;;;;;;;5.50;4.90;;;;;;;27.94;53.48;101065.97;5016737;28;20057;-84
2023/07/19 09:48:47;;;;;;;5.25;4.75;;;;;;;27.68;53.98;101026.03;5027659;28;20030;-85
2023/07/19 09:51:34;;;;;;;5.20;4.70;;;;;;;28.05;53.73;101084.66;5013511;28;20040;-85
2023/07/19 09:54:15;;;;;;;5.40;4.90;;;;;;;27.57;53.83;100999.34;5007867;28;20497;-85
2023/07/19 09:56:42;;;;;;;5.35;4.85;;;;;;;28.06;53.70;101081.06;5026294;28;20040;-85
2023/07/19 09:59:14;;;;;;;4.78;4.32;;;;;;;27.99;53.79;101050.72;5018483;28;20030;-84
2023/07/19 10:01:41;;;;;;;5.55;5.00;;;;;;;27.96;53.58;101048.06;5027639;28;20025;-87
2023/07/19 10:04:27;;;;;;;5.20;4.70;;;;;;;27.93;53.68;101038.25;5024455;28;20607;-84
2023/07/19 10:07:07;;;;;;;5.60;4.80;;;;;;;28.08;53.63;101063.13;5025146;28;20056;-84
2023/07/19 10:09:40;;;;;;;5.28;4.78;;;;;;;28.06;53.55;101073.00;5016017;28;20491;-83
2023/07/19 10:12:26;;;;;;;5.30;4.80;;;;;;;28.05;53.67;101069.44;5015805;28;20030;-82
2023/07/19 10:14:55;;;;;;;4.88;4.45;;;;;;;28.07;53.70;101067.63;4996844;28;20127;-86
2023/07/19 10:17:21;;;;;;;5.18;4.68;;;;;;;27.74;53.64;101005.38;5017626;28;20032;-84
2023/07/19 10:20:24;;;;;;;6.72;4.90;;;;;;;27.79;53.59;101005.31;5018648;28;20041;-85
2023/07/19 10:23:06;;;;;;;5.07;4.63;;;;;;;28.11;53.68;101057.69;5023216;28;20065;-85
2023/07/19 10:26:06;;;;;;;4.95;4.45;;;;;;;28.13;53.46;101053.19;5010506;28;20056;-85
2023/07/19 10:28:32;;;;;;;6.57;4.65;;;;;;;28.02;53.44;101045.28;5017860;28;20041;-84
2023/07/19 10:31:03;;;;;;;5.45;4.93;;;;;;;27.91;53.47;101018.59;5027659;28;20036;-84
2023/07/19 10:33:34;;;;;;;4.97;4.47;;;;;;;28.07;53.26;101038.09;5017826;28;20498;-84
2023/07/19 10:36:09;;;;;;;6.15;4.57;;;;;;;27.93;53.19;101000.69;5023161;28;20167;-85
2023/07/19 10:38:36;;;;;;;8.43;4.60;;;;;;;28.13;53.23;101039.78;5022198;28;20120;-84
2023/07/19 10:41:03;;;;;;;6.00;4.57;;;;;;;28.13;53.08;101045.16;4998721;28;20035;-84
2023/07/19 10:43:31;;;;;;;5.20;4.10;;;;;;;28.15;53.24;101048.69;5022810;28;20140;-84
2023/07/19 10:46:00;;;;;;;4.90;4.50;;;;;;;28.15;52.99;101036.19;5020169;28;20076;-84
2023/07/19 10:48:29;;;;;;;6.75;4.95;;;;;;;28.16;53.03;101031.69;5028200;28;20036;-85
2023/07/19 10:50:57;;;;;;;6.60;4.88;;;;;;;28.16;53.15;101029.00;5024961;28;20112;-84
2023/07/19 10:53:23;;;;;;;5.43;4.57;;;;;;;27.97;53.25;100996.16;5025521;28;20028;-84
2023/07/19 10:55:55;;;;;;;6.60;4.28;;;;;;;28.17;52.75;101030.75;5016739;28;20022;-84
2023/07/19 10:58:22;;;;;;;5.07;4.30;;;;;;;28.14;53.15;101020.09;5016847;28;20025;-83
2023/07/19 11:00:49;;;;;;;6.53;4.20;;;;;;;28.06;53.00;101014.81;5002065;28;20100;-83
2023/07/19 11:03:15;;;;;;;6.43;4.50;;;;;;;28.18;52.91;101019.13;5014146;28;20117;-85
2023/07/19 11:05:46;;;;;;;5.38;4.55;;;;;;;28.19;52.88;101031.63;5029807;28;20123;-83
2023/07/19 11:08:25;;;;;;;6.32;4.70;;;;;;;28.18;52.92;101027.19;5021943;28;20101;-86
2023/07/19 11:10:53;;;;;;;5.45;4.72;;;;;;;28.13;53.27;101013.84;5016187;28;20021;-87
2023/07/19 11:13:28;;;;;;;6.28;4.30;;;;;;;28.17;52.91;101018.25;5034715;28;20491;-88
2023/07/19 11:15:59;;;;;;;6.25;4.60;;;;;;;28.21;53.04;101022.66;5030553;28;20036;-84
2023/07/19 11:18:29;;;;;;;5.88;4.80;;;;;;;28.06;53.13;100995.13;5020899;28;20037;-84
2023/07/19 11:20:57;;;;;;;6.80;5.00;;;;;;;28.11;53.00;100999.53;5021162;28;20038;-84
2023/07/19 11:23:25;;;;;;;5.32;4.53;;;;;;;28.13;52.97;100991.44;5022997;28;20116;-85
2023/07/19 11:25:51;;;;;;;5.82;5.00;;;;;;;28.00;52.97;100967.47;5041888;28;20029;-83
2023/07/19 11:28:42;;;;;;;7.70;4.88;;;;;;;28.25;52.53;101015.44;5040001;28;20034;-83
2023/07/19 11:31:11;;;;;;;6.85;4.57;;;;;;;27.97;52.61;100972.88;5031743;28;20075;-84
2023/07/19 11:33:41;;;;;;;5.55;4.32;;;;;;;28.21;52.63;101009.25;5043323;28;20470;-86
2023/07/19 11:36:10;;;;;;;8.85;5.03;;;;;;;28.30;52.58;101015.34;5020838;28;20047;-84
2023/07/19 11:38:38;;;;;;;5.78;4.60;;;;;;;28.30;52.49;101020.72;5036884;28;20104;-85
2023/07/19 11:41:07;;;;;;;6.20;4.57;;;;;;;28.29;52.47;101014.47;5038890;28;20032;-85